createdAt,value
2019-03-17T00:00:42.282Z,10.80
2019-03-17T00:03:12.077Z,10.80
2019-03-17T00:05:43.386Z,10.90
2019-03-17T00:08:14.524Z,10.80
2019-03-17T00:10:45.351Z,10.90
2019-03-17T00:13:17.636Z,10.90
2019-03-17T00:15:46.627Z,11.00
2019-03-17T00:18:16.421Z,11.00
2019-03-17T00:20:46.206Z,11.00
2019-03-17T00:23:15.999Z,11.00
2019-03-17T00:25:45.933Z,11.00
2019-03-17T00:28:15.735Z,11.10
2019-03-17T00:30:45.509Z,11.10
2019-03-17T00:33:15.321Z,11.10
2019-03-17T00:35:45.263Z,11.10
2019-03-17T00:38:17.873Z,11.10
2019-03-17T00:40:47.697Z,11.10
2019-03-17T00:43:17.491Z,11.20
2019-03-17T00:45:47.293Z,11.20
2019-03-17T00:48:17.099Z,11.20
2019-03-17T00:50:49.097Z,11.20
2019-03-17T00:53:18.932Z,11.20
2019-03-17T00:55:48.787Z,11.20
2019-03-17T00:58:18.571Z,11.20
2019-03-17T01:00:48.777Z,11.20
2019-03-17T01:03:18.588Z,11.20
2019-03-17T01:05:48.367Z,11.20
2019-03-17T01:08:18.224Z,11.30
2019-03-17T01:10:48.103Z,11.30
2019-03-17T01:13:17.974Z,11.20
2019-03-17T01:15:47.819Z,11.30
2019-03-17T01:18:18.667Z,11.30
2019-03-17T01:20:48.636Z,11.30
2019-03-17T01:23:18.428Z,11.30
2019-03-17T01:25:48.213Z,11.30
2019-03-17T01:28:18.046Z,11.30
2019-03-17T01:30:47.818Z,11.30
2019-03-17T01:33:17.680Z,11.30
2019-03-17T01:35:47.500Z,11.30
2019-03-17T01:38:17.305Z,11.30
2019-03-17T01:40:47.094Z,11.30
2019-03-17T01:43:18.428Z,11.30
2019-03-17T01:45:48.216Z,11.30
2019-03-17T01:48:18.106Z,11.30
2019-03-17T01:50:47.899Z,11.20
2019-03-17T01:53:17.696Z,11.30
2019-03-17T01:55:47.498Z,11.20
2019-03-17T01:58:17.287Z,11.20
2019-03-17T02:00:47.162Z,11.20
2019-03-17T02:03:16.964Z,11.10
2019-03-17T02:05:46.756Z,11.00
2019-03-17T02:08:16.557Z,11.00
2019-03-17T02:10:46.347Z,10.90
2019-03-17T02:13:16.209Z,10.90
2019-03-17T02:15:46.009Z,10.90
2019-03-17T02:18:15.790Z,10.80
2019-03-17T02:20:45.666Z,10.80
2019-03-17T02:23:15.472Z,10.90
2019-03-17T02:25:45.322Z,10.90
2019-03-17T02:28:15.087Z,10.90
2019-03-17T02:30:44.881Z,10.90
2019-03-17T02:33:14.736Z,11.00
2019-03-17T02:35:44.554Z,11.00
2019-03-17T02:38:14.323Z,11.00
2019-03-17T02:40:44.125Z,11.00
2019-03-17T02:43:14.016Z,11.00
2019-03-17T02:45:44.868Z,11.00
2019-03-17T02:48:14.680Z,11.00
2019-03-17T02:50:44.483Z,11.00
2019-03-17T02:53:14.301Z,11.00
2019-03-17T02:55:44.087Z,11.00
2019-03-17T02:58:13.886Z,11.00
2019-03-17T03:00:43.743Z,11.00
2019-03-17T03:03:13.532Z,11.00
2019-03-17T03:05:54.945Z,11.00
2019-03-17T03:08:14.800Z,11.00
2019-03-17T03:10:44.665Z,11.00
2019-03-17T03:13:14.470Z,11.00
2019-03-17T03:15:44.318Z,11.00
2019-03-17T03:18:14.131Z,11.00
2019-03-17T03:20:43.933Z,11.00
2019-03-17T03:23:13.720Z,11.00
2019-03-17T03:25:43.505Z,11.00
2019-03-17T03:28:13.344Z,10.90
2019-03-17T03:30:43.130Z,11.00
2019-03-17T03:33:12.991Z,10.90
2019-03-17T03:35:42.782Z,10.80
2019-03-17T03:38:12.665Z,10.70
2019-03-17T03:40:42.451Z,10.70
2019-03-17T03:43:12.270Z,10.60
2019-03-17T03:45:42.032Z,10.60
2019-03-17T03:48:11.850Z,10.60
2019-03-17T03:50:41.640Z,10.70
2019-03-17T03:53:11.458Z,10.60
2019-03-17T03:55:42.366Z,10.60
2019-03-17T03:58:12.409Z,10.60
2019-03-17T04:00:42.219Z,10.60
2019-03-17T04:03:12.064Z,10.70
2019-03-17T04:05:41.873Z,10.70
2019-03-17T04:08:11.666Z,10.70
2019-03-17T04:10:41.456Z,10.70
2019-03-17T04:13:11.246Z,10.80
2019-03-17T04:15:41.070Z,10.80
2019-03-17T04:18:12.475Z,10.80
2019-03-17T04:20:42.267Z,10.80
2019-03-17T04:23:12.062Z,10.80
2019-03-17T04:25:41.855Z,10.80
2019-03-17T04:28:11.730Z,10.80
2019-03-17T04:30:41.563Z,10.80
2019-03-17T04:33:11.353Z,10.80
2019-03-17T04:35:41.168Z,10.80
2019-03-17T04:38:10.960Z,10.70
2019-03-17T04:40:40.828Z,10.70
2019-03-17T04:43:10.624Z,10.70
2019-03-17T04:45:40.413Z,10.70
2019-03-17T04:48:11.203Z,10.60
2019-03-17T04:50:41.767Z,10.60
2019-03-17T04:53:11.567Z,10.70
2019-03-17T04:55:41.435Z,10.60
2019-03-17T04:58:11.268Z,10.60
2019-03-17T05:00:41.121Z,10.60
2019-03-17T05:03:10.913Z,10.60
2019-03-17T05:05:41.438Z,10.60
2019-03-17T05:08:11.258Z,10.60
2019-03-17T05:10:41.098Z,10.60
2019-03-17T05:13:10.929Z,10.60
2019-03-17T05:15:40.750Z,10.60
2019-03-17T05:18:10.528Z,10.60
2019-03-17T05:20:40.310Z,10.60
2019-03-17T05:23:10.113Z,10.60
2019-03-17T05:25:39.920Z,10.60
2019-03-17T05:28:11.268Z,10.60
2019-03-17T05:30:41.056Z,10.60
2019-03-17T05:33:10.860Z,10.60
2019-03-17T05:35:40.781Z,10.60
2019-03-17T05:38:10.617Z,10.60
2019-03-17T05:40:40.409Z,10.60
2019-03-17T05:43:11.348Z,10.60
2019-03-17T05:45:41.140Z,10.60
2019-03-17T05:48:10.938Z,10.60
2019-03-17T05:50:40.730Z,10.60
2019-03-17T05:53:10.575Z,10.50
2019-03-17T05:55:40.358Z,10.50
2019-03-17T05:58:10.138Z,10.50
2019-03-17T06:00:39.940Z,10.50
2019-03-17T06:03:12.624Z,10.40
2019-03-17T06:05:42.452Z,10.40
2019-03-17T06:08:12.212Z,10.40
2019-03-17T06:10:42.037Z,10.30
2019-03-17T06:13:11.812Z,10.30
2019-03-17T06:15:41.663Z,10.20
2019-03-17T06:18:12.496Z,10.20
2019-03-17T06:20:42.248Z,10.10
2019-03-17T06:23:12.034Z,10.10
2019-03-17T06:25:41.855Z,10.10
2019-03-17T06:28:11.618Z,10.00
2019-03-17T06:30:41.422Z,10.00
2019-03-17T06:33:11.200Z,10.00
2019-03-17T06:35:41.037Z,9.90
2019-03-17T06:38:10.889Z,9.90
2019-03-17T06:40:40.681Z,9.90
2019-03-17T06:43:10.465Z,9.90
2019-03-17T06:45:40.244Z,9.80
2019-03-17T06:48:10.043Z,9.90
2019-03-17T06:50:39.825Z,9.80
2019-03-17T06:53:09.610Z,9.70
2019-03-17T06:55:39.370Z,9.70
2019-03-17T06:58:09.185Z,9.70
2019-03-17T07:00:38.962Z,9.70
2019-03-17T07:03:08.759Z,9.70
2019-03-17T07:05:38.601Z,9.70
2019-03-17T07:08:08.408Z,9.70
2019-03-17T07:10:38.260Z,9.70
2019-03-17T07:13:08.044Z,9.60
2019-03-17T07:15:37.828Z,9.60
2019-03-17T07:18:07.625Z,9.60
2019-03-17T07:20:38.966Z,9.50
2019-03-17T07:23:08.747Z,9.50
2019-03-17T07:25:38.569Z,9.50
2019-03-17T07:28:11.280Z,9.60
2019-03-17T07:30:41.065Z,9.60
2019-03-17T07:33:10.862Z,9.60
2019-03-17T07:35:40.652Z,9.70
2019-03-17T07:38:12.487Z,9.70
2019-03-17T07:40:42.047Z,9.80
2019-03-17T07:43:13.091Z,9.70
2019-03-17T07:45:42.887Z,9.60
2019-03-17T07:48:17.824Z,9.60
2019-03-17T07:50:49.201Z,9.40
2019-03-17T07:53:19.951Z,9.30
2019-03-17T07:55:49.785Z,9.30
2019-03-17T07:58:19.595Z,9.30
2019-03-17T08:00:50.271Z,9.30
2019-03-17T08:03:20.061Z,9.20
2019-03-17T08:05:49.893Z,9.20
2019-03-17T08:08:19.689Z,9.30
2019-03-17T08:10:49.486Z,9.30
2019-03-17T08:13:19.311Z,9.40
2019-03-17T08:15:49.085Z,9.40
2019-03-17T08:18:18.873Z,9.40
2019-03-17T08:20:48.660Z,9.40
2019-03-17T08:23:20.010Z,9.50
2019-03-17T08:25:49.777Z,9.50
2019-03-17T08:28:19.559Z,9.50
2019-03-17T08:30:53.512Z,9.60
2019-03-17T08:33:21.893Z,9.60
2019-03-17T08:35:51.657Z,9.60
2019-03-17T08:38:22.410Z,9.60
2019-03-17T08:40:52.286Z,9.60
2019-03-17T08:43:23.150Z,9.60
2019-03-17T08:45:52.979Z,9.70
2019-03-17T08:48:22.773Z,9.80
2019-03-17T08:50:52.562Z,9.90
2019-03-17T08:53:22.347Z,9.90
2019-03-17T08:55:52.124Z,10.10
2019-03-17T08:58:21.939Z,10.20
2019-03-17T09:00:51.737Z,10.10
2019-03-17T09:03:21.555Z,10.10
2019-03-17T09:05:51.347Z,10.20
2019-03-17T09:08:33.958Z,10.20
2019-03-17T09:10:52.608Z,10.20
2019-03-17T09:13:22.398Z,10.30
2019-03-17T09:15:52.204Z,10.30
2019-03-17T09:18:21.984Z,10.40
2019-03-17T09:20:51.782Z,10.40
2019-03-17T09:23:21.573Z,10.20
2019-03-17T09:25:51.380Z,10.10
2019-03-17T09:28:21.160Z,10.10
2019-03-17T09:30:50.935Z,10.10
2019-03-17T09:33:20.717Z,10.20
2019-03-17T09:35:50.512Z,10.30
2019-03-17T09:38:20.287Z,10.40
2019-03-17T09:40:50.075Z,10.50
2019-03-17T09:43:19.927Z,10.60
2019-03-17T09:45:49.707Z,10.60
2019-03-17T09:48:19.489Z,10.90
2019-03-17T09:50:49.280Z,11.20
2019-03-17T09:53:19.063Z,11.40
2019-03-17T09:55:48.859Z,11.50
2019-03-17T09:58:18.663Z,11.70
2019-03-17T10:00:48.443Z,11.70
2019-03-17T10:03:18.259Z,11.60
2019-03-17T10:05:49.579Z,11.60
2019-03-17T10:08:20.370Z,11.50
2019-03-17T10:10:50.147Z,11.60
2019-03-17T10:13:19.944Z,11.50
2019-03-17T10:15:49.740Z,11.30
2019-03-17T10:18:19.539Z,11.20
2019-03-17T10:20:49.372Z,11.20
2019-03-17T10:23:19.200Z,11.30
2019-03-17T10:25:49.005Z,11.20
2019-03-17T10:28:18.794Z,11.20
2019-03-17T10:30:48.586Z,11.20
2019-03-17T10:33:18.384Z,11.10
2019-03-17T10:35:49.228Z,11.10
2019-03-17T10:38:19.400Z,11.20
2019-03-17T10:40:49.194Z,11.20
2019-03-17T10:43:18.989Z,11.20
2019-03-17T10:45:48.758Z,11.10
2019-03-17T10:48:18.569Z,11.10
2019-03-17T10:50:49.789Z,11.10
2019-03-17T10:53:19.794Z,11.10
2019-03-17T10:55:49.594Z,11.10
2019-03-17T10:58:19.371Z,11.20
2019-03-17T11:00:49.164Z,11.40
2019-03-17T11:03:18.936Z,11.50
2019-03-17T11:05:48.730Z,11.60
2019-03-17T11:08:18.693Z,11.60
2019-03-17T11:10:48.502Z,11.60
2019-03-17T11:13:18.270Z,11.70
2019-03-17T11:15:48.062Z,12.00
2019-03-17T11:18:17.856Z,12.00
2019-03-17T11:20:47.642Z,11.90
2019-03-17T11:23:17.425Z,11.70
2019-03-17T11:25:47.236Z,11.50
2019-03-17T11:28:17.016Z,11.50
2019-03-17T11:30:49.893Z,11.60
2019-03-17T11:33:19.666Z,11.70
2019-03-17T11:35:49.463Z,11.70
2019-03-17T11:38:19.263Z,11.90
2019-03-17T11:40:49.080Z,12.00
2019-03-17T11:43:18.864Z,12.10
2019-03-17T11:45:48.678Z,12.20
2019-03-17T11:48:18.478Z,12.20
2019-03-17T11:50:48.255Z,12.20
2019-03-17T11:53:18.079Z,12.10
2019-03-17T11:55:47.850Z,11.80
2019-03-17T11:58:17.647Z,11.70
2019-03-17T12:00:47.424Z,11.80
2019-03-17T12:03:17.235Z,12.00
2019-03-17T12:05:58.039Z,12.20
2019-03-17T12:08:24.532Z,12.30
2019-03-17T12:10:54.311Z,12.30
2019-03-17T12:13:24.103Z,12.40
2019-03-17T12:15:53.888Z,12.40
2019-03-17T12:18:24.762Z,12.50
2019-03-17T12:20:54.623Z,12.60
2019-03-17T12:23:24.418Z,12.70
2019-03-17T12:25:54.206Z,12.50
2019-03-17T12:28:23.971Z,12.50
2019-03-17T12:30:53.745Z,12.70
2019-03-17T12:33:23.545Z,12.80
2019-03-17T12:35:53.325Z,12.60
2019-03-17T12:38:23.123Z,12.70
2019-03-17T12:40:52.898Z,12.80
2019-03-17T12:43:22.709Z,12.60
2019-03-17T12:45:52.478Z,12.40
2019-03-17T12:48:22.276Z,12.20
2019-03-17T12:50:52.059Z,11.90
2019-03-17T12:53:21.841Z,11.80
2019-03-17T12:55:51.655Z,11.80
2019-03-17T12:58:21.439Z,12.00
2019-03-17T13:00:51.235Z,12.00
2019-03-17T13:03:21.007Z,12.30
2019-03-17T13:05:50.815Z,12.80
2019-03-17T13:08:20.608Z,12.80
2019-03-17T13:10:50.395Z,12.80
2019-03-17T13:13:20.167Z,12.70
2019-03-17T13:15:49.961Z,12.40
2019-03-17T13:18:19.724Z,11.80
2019-03-17T13:20:49.515Z,11.50
2019-03-17T13:23:19.297Z,11.60
2019-03-17T13:25:49.105Z,11.90
2019-03-17T13:28:18.889Z,12.10
2019-03-17T13:30:48.679Z,12.20
2019-03-17T13:33:18.466Z,12.60
2019-03-17T13:35:48.243Z,13.00
2019-03-17T13:38:18.027Z,13.50
2019-03-17T13:40:47.809Z,13.60
2019-03-17T13:43:17.591Z,13.10
2019-03-17T13:45:47.372Z,12.70
2019-03-17T13:48:17.155Z,12.40
2019-03-17T13:50:47.008Z,12.20
2019-03-17T13:53:16.805Z,12.00
2019-03-17T13:55:46.586Z,11.80
2019-03-17T13:58:16.391Z,11.90
2019-03-17T14:00:46.177Z,12.40
2019-03-17T14:03:15.963Z,14.40
2019-03-17T14:05:45.747Z,15.40
2019-03-17T14:08:15.531Z,15.70
2019-03-17T14:10:45.327Z,17.10
2019-03-17T14:13:15.115Z,19.20
2019-03-17T14:15:44.907Z,21.40
2019-03-17T14:18:14.713Z,22.10
2019-03-17T14:20:44.523Z,21.80
2019-03-17T14:23:14.311Z,20.60
2019-03-17T14:25:44.115Z,20.70
2019-03-17T14:28:13.901Z,21.60
2019-03-17T14:30:43.687Z,20.90
2019-03-17T14:33:13.615Z,19.40
2019-03-17T14:35:43.413Z,18.20
2019-03-17T14:38:13.179Z,16.60
2019-03-17T14:40:52.902Z,15.30
2019-03-17T14:43:15.519Z,14.20
2019-03-17T14:45:45.319Z,13.80
2019-03-17T14:48:15.110Z,13.40
2019-03-17T14:50:44.887Z,12.90
2019-03-17T14:53:14.671Z,12.40
2019-03-17T14:55:44.563Z,12.00
2019-03-17T14:58:14.389Z,11.80
2019-03-17T15:00:44.182Z,11.60
2019-03-17T15:03:13.985Z,11.40
2019-03-17T15:05:43.771Z,11.20
2019-03-17T15:08:13.555Z,10.90
2019-03-17T15:10:43.335Z,10.80
2019-03-17T15:13:13.130Z,10.70
2019-03-17T15:15:42.931Z,10.50
2019-03-17T15:18:12.709Z,10.20
2019-03-17T15:20:42.490Z,9.80
2019-03-17T15:23:12.286Z,9.10
2019-03-17T15:25:42.070Z,8.70
2019-03-17T15:28:11.849Z,8.30
2019-03-17T15:30:41.639Z,8.20
2019-03-17T15:33:11.435Z,8.20
2019-03-17T15:35:42.290Z,8.30
2019-03-17T15:38:12.060Z,8.80
2019-03-17T15:40:41.863Z,9.00
2019-03-17T15:43:11.632Z,9.10
2019-03-17T15:45:41.423Z,9.30
2019-03-17T15:48:11.190Z,9.70
2019-03-17T15:50:40.959Z,10.00
2019-03-17T15:53:10.751Z,10.20
2019-03-17T15:55:40.535Z,10.20
2019-03-17T15:58:10.331Z,9.90
2019-03-17T16:00:40.114Z,9.70
2019-03-17T16:03:09.978Z,9.70
2019-03-17T16:05:39.745Z,9.60
2019-03-17T16:08:09.590Z,9.60
2019-03-17T16:10:39.373Z,9.40
2019-03-17T16:13:09.151Z,9.30
2019-03-17T16:15:40.331Z,9.10
2019-03-17T16:18:10.406Z,9.00
2019-03-17T16:20:40.179Z,8.90
2019-03-17T16:23:09.978Z,8.80
2019-03-17T16:25:39.820Z,8.70
2019-03-17T16:28:09.609Z,8.60
2019-03-17T16:30:39.378Z,8.70
2019-03-17T16:33:09.154Z,8.90
2019-03-17T16:35:38.923Z,9.00
2019-03-17T16:38:08.686Z,9.00
2019-03-17T16:40:38.486Z,9.30
2019-03-17T16:43:08.339Z,9.30
2019-03-17T16:45:38.127Z,9.50
2019-03-17T16:48:07.892Z,9.40
2019-03-17T16:50:37.675Z,9.30
2019-03-17T16:53:07.444Z,9.00
2019-03-17T16:55:37.236Z,8.80
2019-03-17T16:58:07.005Z,8.60
2019-03-17T17:00:36.799Z,8.50
2019-03-17T17:03:06.567Z,8.40
2019-03-17T17:05:36.347Z,8.30
2019-03-17T17:08:06.129Z,8.20
2019-03-17T17:10:38.230Z,8.10
2019-03-17T17:13:07.411Z,8.10
2019-03-17T17:15:37.256Z,8.10
2019-03-17T17:18:07.055Z,8.00
2019-03-17T17:20:40.341Z,8.00
2019-03-17T17:23:10.227Z,8.00
2019-03-17T17:25:40.180Z,8.10
2019-03-17T17:28:09.946Z,8.10
2019-03-17T17:30:39.735Z,8.00
2019-03-17T17:33:10.508Z,8.00
2019-03-17T17:35:40.313Z,7.90
2019-03-17T17:38:10.069Z,7.90
2019-03-17T17:40:39.843Z,7.80
2019-03-17T17:43:09.703Z,7.80
2019-03-17T17:45:39.499Z,7.90
2019-03-17T17:48:09.275Z,7.90
2019-03-17T17:50:39.042Z,7.90
2019-03-17T17:53:08.835Z,7.90
2019-03-17T17:55:38.609Z,7.90
2019-03-17T17:58:08.403Z,7.80
2019-03-17T18:00:43.357Z,7.80
2019-03-17T18:03:13.967Z,7.80
2019-03-17T18:05:43.747Z,7.80
2019-03-17T18:08:13.555Z,7.90
2019-03-17T18:10:43.365Z,7.90
2019-03-17T18:13:13.151Z,8.00
2019-03-17T18:15:42.935Z,7.90
2019-03-17T18:18:12.726Z,7.80
2019-03-17T18:20:42.495Z,7.60
2019-03-17T18:23:18.017Z,7.00
2019-03-17T18:25:43.825Z,6.40
2019-03-17T18:28:13.614Z,6.00
2019-03-17T18:30:43.387Z,5.80
2019-03-17T18:33:13.163Z,5.70
2019-03-17T18:35:42.944Z,5.60
2019-03-17T18:38:12.719Z,5.60
2019-03-17T18:40:42.609Z,5.70
2019-03-17T18:43:12.466Z,5.90
2019-03-17T18:45:42.836Z,6.00
2019-03-17T18:48:12.864Z,6.10
2019-03-17T18:50:42.653Z,6.00
2019-03-17T18:53:12.451Z,6.00
2019-03-17T18:55:42.244Z,6.00
2019-03-17T18:58:12.033Z,5.90
2019-03-17T19:00:41.794Z,5.90
2019-03-17T19:03:11.594Z,5.80
2019-03-17T19:05:41.371Z,5.80
2019-03-17T19:08:11.149Z,5.70
2019-03-17T19:10:40.933Z,5.80
2019-03-17T19:13:11.118Z,5.90
2019-03-17T19:15:41.112Z,5.80
2019-03-17T19:18:10.880Z,5.70
2019-03-17T19:20:40.658Z,5.70
2019-03-17T19:23:10.428Z,5.70
2019-03-17T19:25:40.238Z,5.60
2019-03-17T19:28:10.056Z,5.60
2019-03-17T19:30:39.836Z,5.70
2019-03-17T19:33:11.261Z,5.70
2019-03-17T19:35:41.850Z,5.70
2019-03-17T19:38:11.671Z,5.60
2019-03-17T19:40:41.447Z,5.50
2019-03-17T19:43:11.216Z,5.50
2019-03-17T19:45:41.004Z,5.40
2019-03-17T19:48:10.766Z,5.40
2019-03-17T19:50:40.550Z,5.40
2019-03-17T19:53:10.336Z,5.30
2019-03-17T19:55:40.126Z,5.30
2019-03-17T19:58:09.900Z,5.30
2019-03-17T20:00:39.682Z,5.30
2019-03-17T20:03:09.457Z,5.30
2019-03-17T20:05:39.232Z,5.20
2019-03-17T20:08:09.009Z,5.20
2019-03-17T20:10:38.778Z,5.20
2019-03-17T20:13:13.308Z,5.20
2019-03-17T20:15:43.229Z,5.20
2019-03-17T20:18:13.059Z,5.20
2019-03-17T20:20:42.826Z,5.10
2019-03-17T20:23:12.607Z,5.10
2019-03-17T20:25:42.379Z,5.10
2019-03-17T20:28:12.161Z,5.10
2019-03-17T20:30:41.928Z,5.10
2019-03-17T20:33:11.724Z,5.20
2019-03-17T20:35:41.506Z,5.20
2019-03-17T20:38:11.352Z,5.20
2019-03-17T20:40:41.132Z,5.30
2019-03-17T20:43:24.033Z,5.30
2019-03-17T20:45:42.391Z,5.40
2019-03-17T20:48:12.226Z,5.40
2019-03-17T20:50:42.024Z,5.40
2019-03-17T20:53:11.795Z,5.40
2019-03-17T20:55:41.581Z,5.30
2019-03-17T20:58:11.338Z,5.30
2019-03-17T21:00:41.133Z,5.30
2019-03-17T21:03:10.900Z,5.20
2019-03-17T21:05:40.689Z,5.20
2019-03-17T21:08:10.464Z,5.20
2019-03-17T21:10:40.251Z,5.20
2019-03-17T21:13:10.025Z,5.20
2019-03-17T21:15:39.814Z,5.10
2019-03-17T21:18:09.583Z,5.20
2019-03-17T21:20:39.359Z,5.20
2019-03-17T21:23:09.131Z,5.10
2019-03-17T21:25:38.920Z,5.10
2019-03-17T21:28:08.690Z,5.10
2019-03-17T21:30:38.479Z,5.10
2019-03-17T21:33:08.250Z,5.10
2019-03-17T21:35:38.039Z,5.20
2019-03-17T21:38:08.788Z,5.20
2019-03-17T21:40:38.586Z,5.30
2019-03-17T21:43:08.352Z,5.30
2019-03-17T21:45:38.228Z,5.30
2019-03-17T21:48:07.998Z,5.40
2019-03-17T21:50:37.786Z,5.40
2019-03-17T21:53:07.560Z,5.50
2019-03-17T21:55:37.338Z,5.60
2019-03-17T21:58:08.267Z,5.60
2019-03-17T22:00:39.828Z,5.60
2019-03-17T22:03:12.772Z,5.60
2019-03-17T22:05:42.547Z,5.60
2019-03-17T22:08:12.425Z,5.60
2019-03-17T22:10:42.195Z,5.60
2019-03-17T22:13:11.979Z,5.60
2019-03-17T22:15:41.752Z,5.60
2019-03-17T22:18:11.531Z,5.50
2019-03-17T22:20:41.297Z,5.50
2019-03-17T22:23:11.083Z,5.50
2019-03-17T22:25:40.859Z,5.50
2019-03-17T22:28:10.637Z,5.50
2019-03-17T22:30:40.409Z,5.60
2019-03-17T22:33:10.195Z,5.60
2019-03-17T22:35:39.969Z,5.60
2019-03-17T22:38:10.824Z,5.50
2019-03-17T22:40:40.600Z,5.50
2019-03-17T22:43:10.393Z,5.40
2019-03-17T22:45:40.171Z,5.40
2019-03-17T22:48:09.975Z,5.30
2019-03-17T22:50:39.755Z,5.30
2019-03-17T22:53:09.525Z,5.30
2019-03-17T22:55:39.357Z,5.20
2019-03-17T22:58:09.123Z,5.20
2019-03-17T23:00:40.487Z,5.20
2019-03-17T23:03:11.063Z,5.20
2019-03-17T23:05:40.924Z,5.20
2019-03-17T23:08:10.702Z,5.20
2019-03-17T23:10:40.480Z,5.30
2019-03-17T23:13:10.255Z,5.30
2019-03-17T23:15:40.047Z,5.40
2019-03-17T23:18:09.827Z,5.40
2019-03-17T23:20:39.619Z,5.40
2019-03-17T23:23:09.397Z,5.40
2019-03-17T23:25:39.185Z,5.40
2019-03-17T23:28:08.959Z,5.40
2019-03-17T23:30:38.750Z,5.40
2019-03-17T23:33:08.527Z,5.40
2019-03-17T23:35:38.311Z,5.30
2019-03-17T23:38:08.093Z,5.30
2019-03-17T23:40:38.683Z,5.20
2019-03-17T23:43:08.460Z,5.20
2019-03-17T23:45:38.255Z,5.20
2019-03-17T23:48:08.036Z,5.20
2019-03-17T23:50:37.807Z,5.20
2019-03-17T23:53:07.607Z,5.20
2019-03-17T23:55:37.371Z,5.20
2019-03-17T23:58:07.155Z,5.20
